sensor_id;sensor_type;location;lat;lon;timestamp;P1;durP1;ratioP1;P2;durP2;ratioP2
71083;SDS011;58741;52.672;13.548;2022-10-16T00:00:30;1.95;;;0.80;;
71083;SDS011;58741;52.672;13.548;2022-10-16T00:02:55;0.80;;;0.80;;
71083;SDS011;58741;52.672;13.548;2022-10-16T00:05:21;0.57;;;0.57;;
71083;SDS011;58741;52.672;13.548;2022-10-16T00:07:46;0.80;;;0.70;;
71083;SDS011;58741;52.672;13.548;2022-10-16T00:10:12;0.50;;;0.50;;
71083;SDS011;58741;52.672;13.548;2022-10-16T00:12:38;0.88;;;0.73;;
71083;SDS011;58741;52.672;13.548;2022-10-16T00:15:03;1.30;;;0.75;;
71083;SDS011;58741;52.672;13.548;2022-10-16T00:17:30;0.93;;;0.70;;
71083;SDS011;58741;52.672;13.548;2022-10-16T00:19:56;0.50;;;0.47;;
71083;SDS011;58741;52.672;13.548;2022-10-16T00:22:21;0.60;;;0.55;;
71083;SDS011;58741;52.672;13.548;2022-10-16T00:24:47;0.40;;;0.40;;
71083;SDS011;58741;52.672;13.548;2022-10-16T00:27:12;2.40;;;1.15;;
71083;SDS011;58741;52.672;13.548;2022-10-16T00:29:38;1.10;;;0.70;;
71083;SDS011;58741;52.672;13.548;2022-10-16T00:32:03;0.40;;;0.40;;
71083;SDS011;58741;52.672;13.548;2022-10-16T00:34:29;0.50;;;0.50;;
71083;SDS011;58741;52.672;13.548;2022-10-16T00:36:54;0.40;;;0.40;;
71083;SDS011;58741;52.672;13.548;2022-10-16T00:39:20;1.38;;;0.75;;
71083;SDS011;58741;52.672;13.548;2022-10-16T00:41:45;0.73;;;0.70;;
71083;SDS011;58741;52.672;13.548;2022-10-16T00:47:27;0.60;;;0.60;;
71083;SDS011;58741;52.672;13.548;2022-10-16T00:50:39;1.23;;;0.57;;
71083;SDS011;58741;52.672;13.548;2022-10-16T00:52:56;3.47;;;0.70;;
71083;SDS011;58741;52.672;13.548;2022-10-16T00:55:23;0.43;;;0.43;;
71083;SDS011;58741;52.672;13.548;2022-10-16T00:57:50;0.50;;;0.50;;
71083;SDS011;58741;52.672;13.548;2022-10-16T01:00:18;0.50;;;0.50;;
71083;SDS011;58741;52.672;13.548;2022-10-16T01:02:55;0.47;;;0.47;;
71083;SDS011;58741;52.672;13.548;2022-10-16T01:05:23;0.77;;;0.55;;
71083;SDS011;58741;52.672;13.548;2022-10-16T01:08:16;0.73;;;0.52;;
71083;SDS011;58741;52.672;13.548;2022-10-16T01:11:01;1.00;;;0.70;;
71083;SDS011;58741;52.672;13.548;2022-10-16T01:13:40;0.30;;;0.30;;
71083;SDS011;58741;52.672;13.548;2022-10-16T01:16:31;0.43;;;0.43;;
71083;SDS011;58741;52.672;13.548;2022-10-16T01:19:08;0.93;;;0.50;;
71083;SDS011;58741;52.672;13.548;2022-10-16T01:21:55;0.52;;;0.52;;
71083;SDS011;58741;52.672;13.548;2022-10-16T01:29:48;0.40;;;0.40;;
71083;SDS011;58741;52.672;13.548;2022-10-16T01:32:22;0.63;;;0.60;;
71083;SDS011;58741;52.672;13.548;2022-10-16T01:34:56;0.88;;;0.45;;
71083;SDS011;58741;52.672;13.548;2022-10-16T01:37:51;0.63;;;0.32;;
71083;SDS011;58741;52.672;13.548;2022-10-16T01:40:24;0.57;;;0.50;;
71083;SDS011;58741;52.672;13.548;2022-10-16T01:42:53;0.45;;;0.30;;
71083;SDS011;58741;52.672;13.548;2022-10-16T01:45:24;0.28;;;0.28;;
71083;SDS011;58741;52.672;13.548;2022-10-16T01:47:50;0.40;;;0.25;;
71083;SDS011;58741;52.672;13.548;2022-10-16T01:50:18;1.75;;;0.55;;
71083;SDS011;58741;52.672;13.548;2022-10-16T01:52:46;0.57;;;0.43;;
71083;SDS011;58741;52.672;13.548;2022-10-16T01:55:16;0.80;;;0.50;;
71083;SDS011;58741;52.672;13.548;2022-10-16T01:57:46;0.30;;;0.30;;
71083;SDS011;58741;52.672;13.548;2022-10-16T02:00:13;0.82;;;0.70;;
71083;SDS011;58741;52.672;13.548;2022-10-16T02:02:43;0.28;;;0.28;;
71083;SDS011;58741;52.672;13.548;2022-10-16T02:05:17;0.35;;;0.35;;
71083;SDS011;58741;52.672;13.548;2022-10-16T02:10:14;0.40;;;0.40;;
71083;SDS011;58741;52.672;13.548;2022-10-16T02:12:40;0.70;;;0.50;;
71083;SDS011;58741;52.672;13.548;2022-10-16T02:15:10;0.20;;;0.20;;
71083;SDS011;58741;52.672;13.548;2022-10-16T02:17:36;0.38;;;0.38;;
71083;SDS011;58741;52.672;13.548;2022-10-16T02:20:03;0.17;;;0.17;;
71083;SDS011;58741;52.672;13.548;2022-10-16T02:22:39;1.08;;;0.60;;
71083;SDS011;58741;52.672;13.548;2022-10-16T02:25:10;0.22;;;0.22;;
71083;SDS011;58741;52.672;13.548;2022-10-16T02:27:48;0.30;;;0.30;;
71083;SDS011;58741;52.672;13.548;2022-10-16T02:30:41;0.30;;;0.25;;
71083;SDS011;58741;52.672;13.548;2022-10-16T02:33:13;0.40;;;0.40;;
71083;SDS011;58741;52.672;13.548;2022-10-16T02:35:41;0.88;;;0.40;;
71083;SDS011;58741;52.672;13.548;2022-10-16T02:38:08;0.38;;;0.30;;
71083;SDS011;58741;52.672;13.548;2022-10-16T02:40:34;0.32;;;0.32;;
71083;SDS011;58741;52.672;13.548;2022-10-16T02:43:02;0.30;;;0.30;;
71083;SDS011;58741;52.672;13.548;2022-10-16T02:45:29;0.43;;;0.30;;
71083;SDS011;58741;52.672;13.548;2022-10-16T02:47:55;0.30;;;0.30;;
71083;SDS011;58741;52.672;13.548;2022-10-16T02:50:20;0.32;;;0.30;;
71083;SDS011;58741;52.672;13.548;2022-10-16T02:52:46;0.30;;;0.30;;
71083;SDS011;58741;52.672;13.548;2022-10-16T02:55:12;0.43;;;0.40;;
71083;SDS011;58741;52.672;13.548;2022-10-16T02:57:37;0.20;;;0.20;;
71083;SDS011;58741;52.672;13.548;2022-10-16T03:00:05;0.25;;;0.25;;
71083;SDS011;58741;52.672;13.548;2022-10-16T03:02:32;0.40;;;0.40;;
71083;SDS011;58741;52.672;13.548;2022-10-16T03:04:58;0.45;;;0.35;;
71083;SDS011;58741;52.672;13.548;2022-10-16T03:07:23;0.20;;;0.20;;
71083;SDS011;58741;52.672;13.548;2022-10-16T03:09:49;0.30;;;0.30;;
71083;SDS011;58741;52.672;13.548;2022-10-16T03:12:14;0.30;;;0.30;;
71083;SDS011;58741;52.672;13.548;2022-10-16T03:14:40;0.30;;;0.30;;
71083;SDS011;58741;52.672;13.548;2022-10-16T03:17:05;0.95;;;0.30;;
71083;SDS011;58741;52.672;13.548;2022-10-16T03:19:31;0.10;;;0.10;;
71083;SDS011;58741;52.672;13.548;2022-10-16T03:21:57;0.32;;;0.32;;
71083;SDS011;58741;52.672;13.548;2022-10-16T03:24:22;1.42;;;0.52;;
71083;SDS011;58741;52.672;13.548;2022-10-16T03:26:47;0.47;;;0.40;;
71083;SDS011;58741;52.672;13.548;2022-10-16T03:29:13;1.02;;;0.40;;
71083;SDS011;58741;52.672;13.548;2022-10-16T03:31:38;0.20;;;0.20;;
71083;SDS011;58741;52.672;13.548;2022-10-16T03:34:04;0.80;;;0.45;;
71083;SDS011;58741;52.672;13.548;2022-10-16T03:36:29;0.40;;;0.40;;
71083;SDS011;58741;52.672;13.548;2022-10-16T03:38:55;0.30;;;0.30;;
71083;SDS011;58741;52.672;13.548;2022-10-16T03:41:20;0.20;;;0.20;;
71083;SDS011;58741;52.672;13.548;2022-10-16T03:43:46;0.30;;;0.28;;
71083;SDS011;58741;52.672;13.548;2022-10-16T03:46:11;0.45;;;0.40;;
71083;SDS011;58741;52.672;13.548;2022-10-16T03:48:36;0.20;;;0.20;;
71083;SDS011;58741;52.672;13.548;2022-10-16T03:51:02;0.20;;;0.20;;
71083;SDS011;58741;52.672;13.548;2022-10-16T03:53:27;0.43;;;0.32;;
71083;SDS011;58741;52.672;13.548;2022-10-16T03:55:53;0.35;;;0.35;;
71083;SDS011;58741;52.672;13.548;2022-10-16T03:58:18;0.63;;;0.30;;
71083;SDS011;58741;52.672;13.548;2022-10-16T04:00:45;0.45;;;0.45;;
71083;SDS011;58741;52.672;13.548;2022-10-16T04:03:12;2.45;;;0.40;;
71083;SDS011;58741;52.672;13.548;2022-10-16T04:05:38;0.40;;;0.28;;
71083;SDS011;58741;52.672;13.548;2022-10-16T04:08:04;0.30;;;0.30;;
71083;SDS011;58741;52.672;13.548;2022-10-16T04:10:30;0.20;;;0.20;;
71083;SDS011;58741;52.672;13.548;2022-10-16T04:12:56;0.30;;;0.30;;
71083;SDS011;58741;52.672;13.548;2022-10-16T04:15:22;0.20;;;0.20;;
71083;SDS011;58741;52.672;13.548;2022-10-16T04:17:48;0.28;;;0.28;;
71083;SDS011;58741;52.672;13.548;2022-10-16T04:20:14;0.63;;;0.25;;
71083;SDS011;58741;52.672;13.548;2022-10-16T04:22:39;0.20;;;0.20;;
71083;SDS011;58741;52.672;13.548;2022-10-16T04:25:05;0.38;;;0.30;;
71083;SDS011;58741;52.672;13.548;2022-10-16T04:27:31;0.30;;;0.30;;
71083;SDS011;58741;52.672;13.548;2022-10-16T04:29:57;0.38;;;0.32;;
71083;SDS011;58741;52.672;13.548;2022-10-16T04:32:24;0.20;;;0.20;;
71083;SDS011;58741;52.672;13.548;2022-10-16T04:34:49;1.13;;;0.30;;
71083;SDS011;58741;52.672;13.548;2022-10-16T04:37:15;0.28;;;0.28;;
71083;SDS011;58741;52.672;13.548;2022-10-16T04:39:40;0.63;;;0.40;;
71083;SDS011;58741;52.672;13.548;2022-10-16T04:42:05;0.43;;;0.30;;
71083;SDS011;58741;52.672;13.548;2022-10-16T04:44:31;0.20;;;0.20;;
71083;SDS011;58741;52.672;13.548;2022-10-16T04:46:56;0.88;;;0.40;;
71083;SDS011;58741;52.672;13.548;2022-10-16T04:49:22;0.63;;;0.52;;
71083;SDS011;58741;52.672;13.548;2022-10-16T04:51:47;0.20;;;0.20;;
71083;SDS011;58741;52.672;13.548;2022-10-16T04:54:13;0.50;;;0.32;;
71083;SDS011;58741;52.672;13.548;2022-10-16T04:56:38;0.40;;;0.35;;
71083;SDS011;58741;52.672;13.548;2022-10-16T04:59:15;0.77;;;0.60;;
71083;SDS011;58741;52.672;13.548;2022-10-16T05:01:41;0.30;;;0.30;;
71083;SDS011;58741;52.672;13.548;2022-10-16T05:04:08;0.30;;;0.30;;
71083;SDS011;58741;52.672;13.548;2022-10-16T05:06:33;0.22;;;0.22;;
71083;SDS011;58741;52.672;13.548;2022-10-16T05:08:59;0.20;;;0.20;;
71083;SDS011;58741;52.672;13.548;2022-10-16T05:11:24;0.40;;;0.40;;
71083;SDS011;58741;52.672;13.548;2022-10-16T05:13:50;0.88;;;0.60;;
71083;SDS011;58741;52.672;13.548;2022-10-16T05:16:15;0.60;;;0.50;;
71083;SDS011;58741;52.672;13.548;2022-10-16T05:18:41;0.40;;;0.40;;
71083;SDS011;58741;52.672;13.548;2022-10-16T05:21:06;0.32;;;0.32;;
71083;SDS011;58741;52.672;13.548;2022-10-16T05:23:32;0.30;;;0.30;;
71083;SDS011;58741;52.672;13.548;2022-10-16T05:25:58;0.30;;;0.30;;
71083;SDS011;58741;52.672;13.548;2022-10-16T05:28:25;0.20;;;0.20;;
71083;SDS011;58741;52.672;13.548;2022-10-16T05:30:51;0.30;;;0.30;;
71083;SDS011;58741;52.672;13.548;2022-10-16T05:33:17;0.40;;;0.40;;
71083;SDS011;58741;52.672;13.548;2022-10-16T05:35:44;0.75;;;0.47;;
71083;SDS011;58741;52.672;13.548;2022-10-16T05:38:10;0.75;;;0.50;;
71083;SDS011;58741;52.672;13.548;2022-10-16T05:40:35;1.15;;;0.55;;
71083;SDS011;58741;52.672;13.548;2022-10-16T05:43:01;0.28;;;0.28;;
71083;SDS011;58741;52.672;13.548;2022-10-16T05:45:26;0.52;;;0.45;;
71083;SDS011;58741;52.672;13.548;2022-10-16T05:47:51;0.50;;;0.50;;
71083;SDS011;58741;52.672;13.548;2022-10-16T05:50:17;0.70;;;0.40;;
71083;SDS011;58741;52.672;13.548;2022-10-16T05:52:42;0.50;;;0.50;;
71083;SDS011;58741;52.672;13.548;2022-10-16T05:55:08;0.50;;;0.50;;
71083;SDS011;58741;52.672;13.548;2022-10-16T05:57:33;0.88;;;0.60;;
71083;SDS011;58741;52.672;13.548;2022-10-16T05:59:59;0.65;;;0.47;;
71083;SDS011;58741;52.672;13.548;2022-10-16T06:02:24;0.38;;;0.38;;
71083;SDS011;58741;52.672;13.548;2022-10-16T06:04:53;0.30;;;0.30;;
71083;SDS011;58741;52.672;13.548;2022-10-16T06:07:18;0.40;;;0.40;;
71083;SDS011;58741;52.672;13.548;2022-10-16T06:09:47;0.50;;;0.50;;
71083;SDS011;58741;52.672;13.548;2022-10-16T06:12:13;0.30;;;0.30;;
71083;SDS011;58741;52.672;13.548;2022-10-16T06:14:39;0.40;;;0.40;;
71083;SDS011;58741;52.672;13.548;2022-10-16T06:17:04;2.70;;;0.45;;
71083;SDS011;58741;52.672;13.548;2022-10-16T06:19:30;0.35;;;0.35;;
71083;SDS011;58741;52.672;13.548;2022-10-16T06:21:56;0.35;;;0.35;;
71083;SDS011;58741;52.672;13.548;2022-10-16T06:24:23;0.40;;;0.40;;
71083;SDS011;58741;52.672;13.548;2022-10-16T06:26:48;0.65;;;0.50;;
71083;SDS011;58741;52.672;13.548;2022-10-16T06:29:13;1.10;;;0.68;;
71083;SDS011;58741;52.672;13.548;2022-10-16T06:31:39;0.50;;;0.30;;
71083;SDS011;58741;52.672;13.548;2022-10-16T06:34:04;0.40;;;0.40;;
71083;SDS011;58741;52.672;13.548;2022-10-16T06:36:34;0.40;;;0.40;;
71083;SDS011;58741;52.672;13.548;2022-10-16T06:38:59;1.42;;;0.60;;
71083;SDS011;58741;52.672;13.548;2022-10-16T06:41:25;0.40;;;0.40;;
71083;SDS011;58741;52.672;13.548;2022-10-16T06:43:51;0.30;;;0.30;;
71083;SDS011;58741;52.672;13.548;2022-10-16T06:46:18;0.73;;;0.70;;
71083;SDS011;58741;52.672;13.548;2022-10-16T06:48:45;0.30;;;0.30;;
71083;SDS011;58741;52.672;13.548;2022-10-16T06:51:13;0.75;;;0.70;;
71083;SDS011;58741;52.672;13.548;2022-10-16T06:53:41;0.40;;;0.40;;
71083;SDS011;58741;52.672;13.548;2022-10-16T06:56:15;0.60;;;0.60;;
71083;SDS011;58741;52.672;13.548;2022-10-16T06:58:42;0.50;;;0.43;;
71083;SDS011;58741;52.672;13.548;2022-10-16T07:01:08;0.80;;;0.60;;
71083;SDS011;58741;52.672;13.548;2022-10-16T07:03:39;7.50;;;0.60;;
71083;SDS011;58741;52.672;13.548;2022-10-16T07:06:06;1.10;;;0.63;;
71083;SDS011;58741;52.672;13.548;2022-10-16T07:08:32;0.88;;;0.45;;
71083;SDS011;58741;52.672;13.548;2022-10-16T07:11:03;0.47;;;0.40;;
71083;SDS011;58741;52.672;13.548;2022-10-16T07:13:30;0.63;;;0.60;;
71083;SDS011;58741;52.672;13.548;2022-10-16T07:15:58;0.40;;;0.40;;
71083;SDS011;58741;52.672;13.548;2022-10-16T07:18:33;0.70;;;0.60;;
71083;SDS011;58741;52.672;13.548;2022-10-16T07:21:05;0.73;;;0.52;;
71083;SDS011;58741;52.672;13.548;2022-10-16T07:23:32;0.65;;;0.63;;
71083;SDS011;58741;52.672;13.548;2022-10-16T07:25:57;0.50;;;0.50;;
71083;SDS011;58741;52.672;13.548;2022-10-16T07:28:23;0.93;;;0.70;;
71083;SDS011;58741;52.672;13.548;2022-10-16T07:30:48;1.00;;;0.60;;
71083;SDS011;58741;52.672;13.548;2022-10-16T07:33:14;0.68;;;0.60;;
71083;SDS011;58741;52.672;13.548;2022-10-16T07:35:52;0.50;;;0.50;;
71083;SDS011;58741;52.672;13.548;2022-10-16T07:38:18;0.80;;;0.45;;
71083;SDS011;58741;52.672;13.548;2022-10-16T07:40:45;0.35;;;0.35;;
71083;SDS011;58741;52.672;13.548;2022-10-16T07:43:11;0.50;;;0.50;;
71083;SDS011;58741;52.672;13.548;2022-10-16T07:45:36;0.93;;;0.45;;
71083;SDS011;58741;52.672;13.548;2022-10-16T07:48:10;0.30;;;0.30;;
71083;SDS011;58741;52.672;13.548;2022-10-16T07:50:36;0.40;;;0.30;;
71083;SDS011;58741;52.672;13.548;2022-10-16T07:53:01;0.30;;;0.30;;
71083;SDS011;58741;52.672;13.548;2022-10-16T07:55:27;0.35;;;0.35;;
71083;SDS011;58741;52.672;13.548;2022-10-16T07:57:52;0.68;;;0.45;;
71083;SDS011;58741;52.672;13.548;2022-10-16T08:00:18;0.30;;;0.30;;
71083;SDS011;58741;52.672;13.548;2022-10-16T08:02:43;0.30;;;0.30;;
71083;SDS011;58741;52.672;13.548;2022-10-16T08:05:08;0.38;;;0.30;;
71083;SDS011;58741;52.672;13.548;2022-10-16T08:07:34;1.45;;;0.60;;
71083;SDS011;58741;52.672;13.548;2022-10-16T08:09:59;0.30;;;0.30;;
71083;SDS011;58741;52.672;13.548;2022-10-16T08:12:25;0.40;;;0.40;;
71083;SDS011;58741;52.672;13.548;2022-10-16T08:14:51;0.40;;;0.40;;
71083;SDS011;58741;52.672;13.548;2022-10-16T08:17:16;2.72;;;0.63;;
71083;SDS011;58741;52.672;13.548;2022-10-16T08:19:45;0.30;;;0.30;;
71083;SDS011;58741;52.672;13.548;2022-10-16T08:22:11;0.40;;;0.40;;
71083;SDS011;58741;52.672;13.548;2022-10-16T08:24:36;0.50;;;0.43;;
71083;SDS011;58741;52.672;13.548;2022-10-16T08:27:02;0.93;;;0.57;;
71083;SDS011;58741;52.672;13.548;2022-10-16T08:29:28;0.40;;;0.40;;
71083;SDS011;58741;52.672;13.548;2022-10-16T08:31:53;0.50;;;0.50;;
71083;SDS011;58741;52.672;13.548;2022-10-16T08:34:19;0.50;;;0.50;;
71083;SDS011;58741;52.672;13.548;2022-10-16T08:36:44;0.32;;;0.30;;
71083;SDS011;58741;52.672;13.548;2022-10-16T08:39:10;0.30;;;0.30;;
71083;SDS011;58741;52.672;13.548;2022-10-16T08:47:18;1.33;;;0.52;;
71083;SDS011;58741;52.672;13.548;2022-10-16T08:49:58;0.38;;;0.32;;
71083;SDS011;58741;52.672;13.548;2022-10-16T08:52:30;0.35;;;0.35;;
71083;SDS011;58741;52.672;13.548;2022-10-16T08:55:00;0.30;;;0.30;;
71083;SDS011;58741;52.672;13.548;2022-10-16T08:57:26;0.70;;;0.50;;
71083;SDS011;58741;52.672;13.548;2022-10-16T08:59:52;0.77;;;0.52;;
71083;SDS011;58741;52.672;13.548;2022-10-16T09:02:35;1.27;;;0.95;;
71083;SDS011;58741;52.672;13.548;2022-10-16T09:10:50;0.40;;;0.40;;
71083;SDS011;58741;52.672;13.548;2022-10-16T09:21:41;1.15;;;0.40;;
71083;SDS011;58741;52.672;13.548;2022-10-16T09:24:12;0.35;;;0.35;;
71083;SDS011;58741;52.672;13.548;2022-10-16T09:26:43;0.45;;;0.45;;
71083;SDS011;58741;52.672;13.548;2022-10-16T09:29:16;0.80;;;0.57;;
71083;SDS011;58741;52.672;13.548;2022-10-16T09:31:48;0.32;;;0.32;;
71083;SDS011;58741;52.672;13.548;2022-10-16T09:34:30;0.32;;;0.32;;
71083;SDS011;58741;52.672;13.548;2022-10-16T09:37:01;0.55;;;0.55;;
71083;SDS011;58741;52.672;13.548;2022-10-16T09:39:30;0.75;;;0.55;;
71083;SDS011;58741;52.672;13.548;2022-10-16T09:42:09;0.47;;;0.47;;
71083;SDS011;58741;52.672;13.548;2022-10-16T09:44:39;0.57;;;0.57;;
71083;SDS011;58741;52.672;13.548;2022-10-16T09:47:12;0.85;;;0.60;;
71083;SDS011;58741;52.672;13.548;2022-10-16T09:49:56;0.50;;;0.50;;
71083;SDS011;58741;52.672;13.548;2022-10-16T09:52:27;0.63;;;0.40;;
71083;SDS011;58741;52.672;13.548;2022-10-16T09:54:54;0.35;;;0.35;;
71083;SDS011;58741;52.672;13.548;2022-10-16T09:57:22;0.57;;;0.57;;
71083;SDS011;58741;52.672;13.548;2022-10-16T09:59:48;0.40;;;0.40;;
71083;SDS011;58741;52.672;13.548;2022-10-16T10:02:16;0.80;;;0.47;;
71083;SDS011;58741;52.672;13.548;2022-10-16T10:05:04;1.70;;;0.45;;
71083;SDS011;58741;52.672;13.548;2022-10-16T10:07:42;1.23;;;0.70;;
71083;SDS011;58741;52.672;13.548;2022-10-16T10:10:18;0.60;;;0.60;;
71083;SDS011;58741;52.672;13.548;2022-10-16T10:12:46;0.77;;;0.75;;
71083;SDS011;58741;52.672;13.548;2022-10-16T10:15:11;0.50;;;0.50;;
71083;SDS011;58741;52.672;13.548;2022-10-16T10:18:00;0.45;;;0.45;;
71083;SDS011;58741;52.672;13.548;2022-10-16T10:20:28;0.30;;;0.30;;
71083;SDS011;58741;52.672;13.548;2022-10-16T10:22:55;3.13;;;0.90;;
71083;SDS011;58741;52.672;13.548;2022-10-16T10:28:07;0.40;;;0.40;;
71083;SDS011;58741;52.672;13.548;2022-10-16T10:31:06;0.60;;;0.60;;
71083;SDS011;58741;52.672;13.548;2022-10-16T10:33:58;0.30;;;0.30;;
71083;SDS011;58741;52.672;13.548;2022-10-16T10:41:58;0.70;;;0.60;;
71083;SDS011;58741;52.672;13.548;2022-10-16T10:47:19;0.73;;;0.60;;
71083;SDS011;58741;52.672;13.548;2022-10-16T10:50:22;0.60;;;0.60;;
71083;SDS011;58741;52.672;13.548;2022-10-16T10:55:53;0.63;;;0.50;;
71083;SDS011;58741;52.672;13.548;2022-10-16T10:58:29;0.35;;;0.35;;
71083;SDS011;58741;52.672;13.548;2022-10-16T11:01:09;0.63;;;0.50;;
71083;SDS011;58741;52.672;13.548;2022-10-16T11:03:47;0.80;;;0.55;;
71083;SDS011;58741;52.672;13.548;2022-10-16T11:09:28;0.63;;;0.63;;
71083;SDS011;58741;52.672;13.548;2022-10-16T11:12:15;1.38;;;0.60;;
71083;SDS011;58741;52.672;13.548;2022-10-16T11:17:25;0.52;;;0.43;;
71083;SDS011;58741;52.672;13.548;2022-10-16T11:20:01;0.30;;;0.30;;
71083;SDS011;58741;52.672;13.548;2022-10-16T11:22:39;0.47;;;0.47;;
71083;SDS011;58741;52.672;13.548;2022-10-16T11:25:22;0.45;;;0.40;;
71083;SDS011;58741;52.672;13.548;2022-10-16T11:27:53;0.20;;;0.20;;
71083;SDS011;58741;52.672;13.548;2022-10-16T11:30:29;0.40;;;0.40;;
71083;SDS011;58741;52.672;13.548;2022-10-16T11:33:02;0.65;;;0.50;;
71083;SDS011;58741;52.672;13.548;2022-10-16T11:35:43;0.40;;;0.40;;
71083;SDS011;58741;52.672;13.548;2022-10-16T11:38:15;0.28;;;0.28;;
71083;SDS011;58741;52.672;13.548;2022-10-16T11:40:54;0.43;;;0.43;;
71083;SDS011;58741;52.672;13.548;2022-10-16T11:43:25;0.63;;;0.50;;
71083;SDS011;58741;52.672;13.548;2022-10-16T11:46:02;0.50;;;0.50;;
71083;SDS011;58741;52.672;13.548;2022-10-16T11:52:07;0.35;;;0.35;;
71083;SDS011;58741;52.672;13.548;2022-10-16T11:54:51;0.57;;;0.50;;
71083;SDS011;58741;52.672;13.548;2022-10-16T11:57:33;0.30;;;0.30;;
71083;SDS011;58741;52.672;13.548;2022-10-16T12:00:05;0.30;;;0.30;;
71083;SDS011;58741;52.672;13.548;2022-10-16T12:08:10;0.32;;;0.30;;
71083;SDS011;58741;52.672;13.548;2022-10-16T12:10:39;0.30;;;0.30;;
71083;SDS011;58741;52.672;13.548;2022-10-16T12:18:37;0.20;;;0.20;;
71083;SDS011;58741;52.672;13.548;2022-10-16T12:21:04;0.30;;;0.30;;
71083;SDS011;58741;52.672;13.548;2022-10-16T12:23:53;0.28;;;0.28;;
71083;SDS011;58741;52.672;13.548;2022-10-16T12:26:25;0.20;;;0.20;;
71083;SDS011;58741;52.672;13.548;2022-10-16T12:28:53;0.28;;;0.28;;
71083;SDS011;58741;52.672;13.548;2022-10-16T12:31:20;0.20;;;0.20;;
71083;SDS011;58741;52.672;13.548;2022-10-16T12:33:56;0.52;;;0.35;;
71083;SDS011;58741;52.672;13.548;2022-10-16T12:36:31;0.30;;;0.30;;
71083;SDS011;58741;52.672;13.548;2022-10-16T12:38:58;0.35;;;0.30;;
71083;SDS011;58741;52.672;13.548;2022-10-16T12:41:26;0.38;;;0.38;;
71083;SDS011;58741;52.672;13.548;2022-10-16T12:43:53;0.30;;;0.30;;
71083;SDS011;58741;52.672;13.548;2022-10-16T12:51:38;0.38;;;0.38;;
71083;SDS011;58741;52.672;13.548;2022-10-16T13:02:31;0.73;;;0.28;;
71083;SDS011;58741;52.672;13.548;2022-10-16T13:11:14;0.20;;;0.20;;
71083;SDS011;58741;52.672;13.548;2022-10-16T13:16:46;0.30;;;0.30;;
71083;SDS011;58741;52.672;13.548;2022-10-16T13:19:32;0.30;;;0.30;;
71083;SDS011;58741;52.672;13.548;2022-10-16T13:22:24;0.20;;;0.20;;
71083;SDS011;58741;52.672;13.548;2022-10-16T13:25:18;0.20;;;0.20;;
71083;SDS011;58741;52.672;13.548;2022-10-16T13:27:55;0.30;;;0.30;;
71083;SDS011;58741;52.672;13.548;2022-10-16T13:30:25;0.20;;;0.20;;
71083;SDS011;58741;52.672;13.548;2022-10-16T13:33:03;0.20;;;0.20;;
71083;SDS011;58741;52.672;13.548;2022-10-16T13:35:33;0.40;;;0.40;;
71083;SDS011;58741;52.672;13.548;2022-10-16T13:38:19;0.30;;;0.30;;
71083;SDS011;58741;52.672;13.548;2022-10-16T13:43:15;0.30;;;0.30;;
71083;SDS011;58741;52.672;13.548;2022-10-16T13:45:51;0.20;;;0.20;;
71083;SDS011;58741;52.672;13.548;2022-10-16T13:48:18;0.20;;;0.20;;
71083;SDS011;58741;52.672;13.548;2022-10-16T13:50:43;0.20;;;0.20;;
71083;SDS011;58741;52.672;13.548;2022-10-16T13:53:13;0.80;;;0.32;;
71083;SDS011;58741;52.672;13.548;2022-10-16T13:55:39;0.30;;;0.30;;
71083;SDS011;58741;52.672;13.548;2022-10-16T13:58:07;0.43;;;0.43;;
71083;SDS011;58741;52.672;13.548;2022-10-16T14:00:36;0.20;;;0.20;;
71083;SDS011;58741;52.672;13.548;2022-10-16T14:03:03;0.15;;;0.15;;
71083;SDS011;58741;52.672;13.548;2022-10-16T14:05:41;0.40;;;0.40;;
71083;SDS011;58741;52.672;13.548;2022-10-16T14:08:18;0.30;;;0.30;;
71083;SDS011;58741;52.672;13.548;2022-10-16T14:10:47;0.20;;;0.20;;
71083;SDS011;58741;52.672;13.548;2022-10-16T14:13:16;0.30;;;0.30;;
71083;SDS011;58741;52.672;13.548;2022-10-16T14:15:46;0.20;;;0.20;;
71083;SDS011;58741;52.672;13.548;2022-10-16T14:18:18;0.20;;;0.20;;
71083;SDS011;58741;52.672;13.548;2022-10-16T14:20:46;0.20;;;0.20;;
71083;SDS011;58741;52.672;13.548;2022-10-16T14:23:30;0.30;;;0.30;;
71083;SDS011;58741;52.672;13.548;2022-10-16T14:26:05;0.20;;;0.20;;
71083;SDS011;58741;52.672;13.548;2022-10-16T14:28:34;0.28;;;0.28;;
71083;SDS011;58741;52.672;13.548;2022-10-16T14:33:45;0.28;;;0.28;;
71083;SDS011;58741;52.672;13.548;2022-10-16T14:36:12;0.30;;;0.30;;
71083;SDS011;58741;52.672;13.548;2022-10-16T14:38:40;0.35;;;0.35;;
71083;SDS011;58741;52.672;13.548;2022-10-16T14:41:08;0.63;;;0.60;;
71083;SDS011;58741;52.672;13.548;2022-10-16T14:43:34;4.95;;;1.77;;
71083;SDS011;58741;52.672;13.548;2022-10-16T14:46:50;7.28;;;3.72;;
71083;SDS011;58741;52.672;13.548;2022-10-16T14:48:58;4.97;;;2.70;;
71083;SDS011;58741;52.672;13.548;2022-10-16T14:51:29;5.20;;;2.42;;
71083;SDS011;58741;52.672;13.548;2022-10-16T14:53:55;2.47;;;1.45;;
71083;SDS011;58741;52.672;13.548;2022-10-16T14:56:22;1.40;;;0.93;;
71083;SDS011;58741;52.672;13.548;2022-10-16T14:58:49;1.02;;;0.93;;
71083;SDS011;58741;52.672;13.548;2022-10-16T15:01:16;1.05;;;0.70;;
71083;SDS011;58741;52.672;13.548;2022-10-16T15:03:42;0.50;;;0.50;;
71083;SDS011;58741;52.672;13.548;2022-10-16T15:06:11;1.05;;;0.80;;
71083;SDS011;58741;52.672;13.548;2022-10-16T15:08:38;1.40;;;0.82;;
71083;SDS011;58741;52.672;13.548;2022-10-16T15:11:04;1.98;;;1.20;;
71083;SDS011;58741;52.672;13.548;2022-10-16T15:13:30;1.83;;;0.93;;
71083;SDS011;58741;52.672;13.548;2022-10-16T15:15:55;0.63;;;0.63;;
71083;SDS011;58741;52.672;13.548;2022-10-16T15:18:21;0.70;;;0.70;;
71083;SDS011;58741;52.672;13.548;2022-10-16T15:20:50;1.50;;;0.80;;
71083;SDS011;58741;52.672;13.548;2022-10-16T15:23:17;1.15;;;0.98;;
71083;SDS011;58741;52.672;13.548;2022-10-16T15:25:45;1.10;;;1.00;;
71083;SDS011;58741;52.672;13.548;2022-10-16T15:28:17;0.70;;;0.70;;
71083;SDS011;58741;52.672;13.548;2022-10-16T15:30:43;0.57;;;0.57;;
71083;SDS011;58741;52.672;13.548;2022-10-16T15:33:20;0.50;;;0.50;;
71083;SDS011;58741;52.672;13.548;2022-10-16T15:35:51;0.82;;;0.73;;
71083;SDS011;58741;52.672;13.548;2022-10-16T15:38:18;0.68;;;0.63;;
71083;SDS011;58741;52.672;13.548;2022-10-16T15:40:47;0.63;;;0.63;;
71083;SDS011;58741;52.672;13.548;2022-10-16T15:43:13;1.13;;;0.95;;
71083;SDS011;58741;52.672;13.548;2022-10-16T15:45:38;1.33;;;1.23;;
71083;SDS011;58741;52.672;13.548;2022-10-16T15:48:04;2.05;;;1.20;;
71083;SDS011;58741;52.672;13.548;2022-10-16T15:50:30;2.75;;;1.90;;
71083;SDS011;58741;52.672;13.548;2022-10-16T15:52:57;3.30;;;2.03;;
71083;SDS011;58741;52.672;13.548;2022-10-16T15:55:23;3.05;;;1.98;;
71083;SDS011;58741;52.672;13.548;2022-10-16T15:57:48;5.07;;;2.13;;
71083;SDS011;58741;52.672;13.548;2022-10-16T16:00:15;4.20;;;1.77;;
71083;SDS011;58741;52.672;13.548;2022-10-16T16:02:43;2.90;;;1.58;;
71083;SDS011;58741;52.672;13.548;2022-10-16T16:05:14;2.03;;;1.45;;
71083;SDS011;58741;52.672;13.548;2022-10-16T16:07:39;1.35;;;1.05;;
71083;SDS011;58741;52.672;13.548;2022-10-16T16:10:07;0.90;;;0.90;;
71083;SDS011;58741;52.672;13.548;2022-10-16T16:12:34;3.63;;;0.90;;
71083;SDS011;58741;52.672;13.548;2022-10-16T16:15:01;1.55;;;0.88;;
71083;SDS011;58741;52.672;13.548;2022-10-16T16:17:27;2.00;;;1.05;;
71083;SDS011;58741;52.672;13.548;2022-10-16T16:19:52;1.00;;;0.93;;